Terminal Aerodrome Forecast
Issued by NWS Omaha/Valley, NE

Home | Current Version | Previous Version | Graphics & Text | Print | Product List | Glossary On
Versions: 1 2 3 4 5 6 7 8 9 10 11 12 13 14 15 16 17 18 19 20 21 22 23 24 25 26 27 28 29 30 31 32 33 34 35 36 37 38
000
FTUS43 KOAX 261120
TAFOFK
TAF
KOFK 261120Z 2612/2712 33019G27KT P6SM BKN025 OVC040
      TEMPO 2612/2614 5SM -SN BKN012 OVC025
     FM261400 33022G32KT P6SM BKN020
      TEMPO 2614/2618 5SM -SN OVC015
     FM261900 34022G30KT P6SM SCT025 BKN050
     FM262300 35010KT P6SM SCT030 BKN250
     FM270500 34004KT P6SM BKN040=

USA.gov is the U.S. government's official web portal to all federal, state and local government web resources and services.